Los Angeles Regional Airport Weather

KWHP 201550Z 12004KT 10SM OVC040 13/10 A3008

KAPV 191256Z AUTO 05004KT 10SM FEW075 SCT090 BKN110 18/18 A2996 RMK AO2 SLP144 T01830178 $

KAVX 192205Z AUTO VRB04KT 5SM BR SCT002 14/12 A2993 RMK AO2 T01390122

KBFL 201554Z 00000KT 10SM CLR 13/07 A3001 RMK AO2 SLP160 T01280072

KBUR 201605Z 15005KT 10SM FEW015 BKN040 OVC050 13/10 A3004 RMK AO2 T01330100

KCMA 201555Z 00000KT 8SM SCT050 BKN110 16/11 A3004 RMK AO2 SLP181 T01560106

KCNO 201553Z 00000KT 10SM FEW030 BKN060 BKN250 13/10 A3006 RMK AO2 SLP178 T01330100

KEMT 201545Z 12005KT 10SM BKN055 15/10 A3006

KFUL 201620Z 15005KT 10SM BKN024 BKN033 OVC080 17/11 A3004 RMK AO2 T01670106

KHHR 201615Z 09005KT 10SM BKN017 BKN080 16/11 A3005 RMK AO2 T01610106

KL35 201615Z AUTO 00000KT 10SM OVC110 02/M03 A3002 RMK AO2

KLAX 201553Z VRB05KT 8SM SCT010 BKN049 BKN100 BKN140 16/11 A3004 RMK AO2 SLP173 T01560111 $

KLGB 201553Z 14005KT 7SM BKN014 BKN020 BKN075 16/12 A3005 RMK AO2 SLP174 T01560117

KONT 201553Z VRB03KT 10SM SCT023 BKN035 BKN060 BKN150 16/09 A3005 RMK AO2 SLP169 T01560089

KOXR 201551Z 01003KT 8SM FEW048 OVC070 13/12 A3004 RMK AO2 RAB00E44 SLP174 P0004 T01330117

KPMD 201553Z 25012KT 10SM CLR 12/04 A3002 RMK AO2 SLP156 T01220044

KPOC 201547Z 00000KT 10SM FEW023 OVC075 13/09 A3005

KRAL 201553Z 13003KT 10SM FEW060 BKN080 13/09 A3005 RMK AO2 SLP165 T01280089

KSMO 201551Z VRB03KT 10SM FEW021 SCT031 OVC070 16/11 A3005 RMK AO2 SLP175 T01560111

KSNA 201553Z 13007KT 10SM FEW035 FEW065 BKN080 16/10 A3005 RMK AO2 RAE02 SLP175 P0000 T01560100

KTOA 201548Z 00000KT 10SM BKN012 BKN015 BKN045 14/13 A3005

KTRM 201552Z AUTO 31008KT 10SM FEW100 20/01 A2994 RMK AO2 SLP138 T02000006 $

KVNY 201551Z 15003KT 10SM FEW016 FEW041 BKN075 14/10 A3004 RMK AO2 SLP168 T01390100

KWJF 201556Z 25010KT 10SM CLR 10/06 A3003 RMK AO2 SLP170 T01000061



How to read METARs